createdAt,value
2023-02-28T00:01:43.419Z,19.45
2023-02-28T00:04:12.097Z,19.35
2023-02-28T00:06:40.647Z,20.67
2023-02-28T00:09:08.958Z,19.42
2023-02-28T00:11:39.523Z,22.73
2023-02-28T00:14:08.135Z,20.80
2023-02-28T00:16:36.705Z,23.20
2023-02-28T00:19:05.472Z,22.55
2023-02-28T00:21:34.827Z,21.70
2023-02-28T00:24:04.593Z,23.38
2023-02-28T00:26:33.836Z,25.00
2023-02-28T00:29:02.714Z,22.15
2023-02-28T00:31:31.062Z,23.50
2023-02-28T00:33:59.713Z,22.38
2023-02-28T00:36:27.981Z,21.33
2023-02-28T00:38:56.638Z,19.90
2023-02-28T00:41:24.889Z,20.75
2023-02-28T00:43:53.839Z,15.40
2023-02-28T00:46:22.550Z,16.42
2023-02-28T00:48:55.738Z,13.15
2023-02-28T00:51:24.529Z,12.05
2023-02-28T00:53:53.002Z,12.45
2023-02-28T00:56:22.167Z,13.10
2023-02-28T00:58:51.287Z,11.88
2023-02-28T01:01:21.115Z,12.15
2023-02-28T01:03:49.342Z,13.25
2023-02-28T01:06:18.194Z,12.63
2023-02-28T01:08:46.617Z,12.38
2023-02-28T01:11:16.376Z,12.95
2023-02-28T01:13:45.436Z,11.50
2023-02-28T01:16:14.638Z,10.88
2023-02-28T01:18:42.934Z,13.30
2023-02-28T01:21:16.294Z,13.38
2023-02-28T01:23:44.784Z,13.85
2023-02-28T01:26:16.136Z,16.77
2023-02-28T01:28:44.570Z,17.15
2023-02-28T01:31:12.983Z,19.83
2023-02-28T01:33:41.288Z,20.45
2023-02-28T01:36:12.700Z,19.40
2023-02-28T01:38:41.273Z,17.77
2023-02-28T01:41:09.605Z,14.75
2023-02-28T01:43:44.337Z,13.73
2023-02-28T01:46:14.915Z,16.73
2023-02-28T01:49:23.642Z,19.00
2023-02-28T01:51:56.816Z,21.85
2023-02-28T01:54:29.327Z,26.23
2023-02-28T01:57:00.902Z,28.77
2023-02-28T01:59:33.834Z,29.95
2023-02-28T02:02:03.208Z,30.25
2023-02-28T02:04:38.107Z,25.08
2023-02-28T02:07:06.220Z,24.83
2023-02-28T02:09:34.630Z,27.45
2023-02-28T02:12:07.866Z,27.48
2023-02-28T02:14:44.101Z,25.77
2023-02-28T02:17:21.310Z,24.17
2023-02-28T02:20:18.452Z,23.67
2023-02-28T02:23:24.508Z,19.20
2023-02-28T02:26:17.081Z,18.70
2023-02-28T02:29:02.451Z,19.02
2023-02-28T02:31:40.742Z,18.77
2023-02-28T02:34:51.616Z,19.48
2023-02-28T02:37:30.676Z,21.90
2023-02-28T02:40:19.342Z,23.40
2023-02-28T02:43:00.172Z,24.33
2023-02-28T02:45:47.824Z,21.75
2023-02-28T02:48:18.652Z,21.48
2023-02-28T02:50:58.635Z,18.83
2023-02-28T02:53:35.686Z,15.48
2023-02-28T02:56:04.256Z,15.70
2023-02-28T02:58:43.964Z,16.70
2023-02-28T03:01:14.381Z,14.38
2023-02-28T03:03:43.429Z,15.02
2023-02-28T03:06:12.264Z,14.38
2023-02-28T03:08:41.458Z,12.68
2023-02-28T03:11:16.719Z,13.23
2023-02-28T03:14:12.904Z,13.60
2023-02-28T03:17:01.578Z,13.45
2023-02-28T03:19:52.288Z,12.68
2023-02-28T03:23:00.243Z,13.18
2023-02-28T03:25:53.072Z,12.88
2023-02-28T03:28:47.441Z,12.88
2023-02-28T03:31:35.097Z,12.52
2023-02-28T03:34:39.500Z,10.63
2023-02-28T03:37:16.988Z,9.98
2023-02-28T03:39:56.110Z,9.20
2023-02-28T03:42:29.296Z,8.82
2023-02-28T03:48:15.236Z,8.80
2023-02-28T03:50:47.017Z,7.95
2023-02-28T03:53:22.080Z,9.57
2023-02-28T03:56:02.284Z,8.82
2023-02-28T03:59:01.534Z,8.63
2023-02-28T04:01:36.718Z,8.35
2023-02-28T04:04:04.662Z,8.77
2023-02-28T04:06:34.304Z,10.35
2023-02-28T04:09:02.586Z,10.88
2023-02-28T04:11:38.705Z,9.02
2023-02-28T04:14:07.362Z,9.90
2023-02-28T04:16:36.215Z,9.82
2023-02-28T04:19:08.240Z,9.98
2023-02-28T04:21:37.686Z,10.30
2023-02-28T04:24:06.721Z,8.93
2023-02-28T04:26:35.727Z,9.35
2023-02-28T04:29:05.084Z,5.40
2023-02-28T04:31:33.506Z,4.30
2023-02-28T04:34:02.729Z,3.42
2023-02-28T04:36:31.578Z,3.55
2023-02-28T04:39:00.038Z,3.80
2023-02-28T04:41:32.203Z,4.13
2023-02-28T04:44:01.573Z,4.20
2023-02-28T04:46:30.146Z,4.88
2023-02-28T04:48:58.983Z,5.32
2023-02-28T04:51:27.718Z,5.15
2023-02-28T04:53:56.753Z,5.45
2023-02-28T04:56:24.840Z,6.40
2023-02-28T04:58:56.272Z,6.78
2023-02-28T05:01:26.994Z,4.88
2023-02-28T05:03:57.455Z,5.35
2023-02-28T05:06:27.405Z,5.40
2023-02-28T05:08:58.819Z,4.10
2023-02-28T05:11:36.577Z,5.50
2023-02-28T05:14:06.210Z,4.95
2023-02-28T05:16:34.952Z,4.43
2023-02-28T05:19:03.870Z,3.80
2023-02-28T05:21:34.333Z,4.50
2023-02-28T05:24:04.532Z,4.05
2023-02-28T05:26:33.228Z,4.45
2023-02-28T05:29:01.817Z,2.47
2023-02-28T05:31:30.363Z,1.80
2023-02-28T05:33:59.255Z,2.65
2023-02-28T05:36:28.044Z,3.40
2023-02-28T05:38:59.170Z,2.60
2023-02-28T05:41:30.621Z,3.58
2023-02-28T05:44:04.166Z,3.25
2023-02-28T05:46:36.411Z,2.35
2023-02-28T05:49:05.224Z,2.58
2023-02-28T05:51:35.687Z,2.20
2023-02-28T05:54:04.329Z,2.03
2023-02-28T05:56:33.300Z,2.17
2023-02-28T05:59:02.476Z,2.53
2023-02-28T06:01:50.118Z,2.30
2023-02-28T06:04:31.176Z,2.60
2023-02-28T06:07:00.664Z,3.35
2023-02-28T06:09:28.738Z,2.85
2023-02-28T06:11:58.878Z,3.15
2023-02-28T06:14:26.848Z,3.00
2023-02-28T06:16:54.726Z,3.65
2023-02-28T06:19:24.219Z,3.40
2023-02-28T06:21:53.712Z,3.17
2023-02-28T06:24:25.080Z,2.35
2023-02-28T06:26:53.137Z,2.17
2023-02-28T06:29:20.925Z,2.47
2023-02-28T06:31:49.507Z,2.35
2023-02-28T06:34:17.816Z,2.83
2023-02-28T06:36:45.877Z,2.40
2023-02-28T06:39:13.941Z,2.72
2023-02-28T06:41:54.282Z,2.88
2023-02-28T06:44:25.756Z,3.10
2023-02-28T06:46:53.851Z,3.03
2023-02-28T06:49:22.056Z,3.60
2023-02-28T06:51:49.993Z,2.90
2023-02-28T06:54:18.013Z,3.03
2023-02-28T06:56:46.193Z,2.65
2023-02-28T06:59:14.107Z,4.10
2023-02-28T07:01:42.375Z,1.95
2023-02-28T07:04:10.574Z,2.63
2023-02-28T07:06:38.389Z,2.50
2023-02-28T07:09:06.665Z,2.40
2023-02-28T07:11:34.708Z,2.22
2023-02-28T07:14:02.562Z,2.33
2023-02-28T07:16:30.416Z,2.83
2023-02-28T07:18:58.829Z,2.72
2023-02-28T07:21:26.617Z,3.28
2023-02-28T07:23:54.656Z,4.75
2023-02-28T07:26:22.836Z,3.35
2023-02-28T07:28:51.046Z,4.47
2023-02-28T07:31:19.559Z,3.33
2023-02-28T07:33:47.950Z,3.00
2023-02-28T07:36:17.299Z,5.30
2023-02-28T07:38:48.352Z,2.80
2023-02-28T07:41:17.811Z,2.80
2023-02-28T07:43:46.116Z,3.08
2023-02-28T07:46:19.288Z,3.35
2023-02-28T07:51:14.711Z,3.58
2023-02-28T07:53:42.875Z,2.95
2023-02-28T07:56:12.404Z,2.90
2023-02-28T07:58:40.361Z,3.15
2023-02-28T08:01:09.909Z,3.20
2023-02-28T08:03:38.032Z,3.40
2023-02-28T08:06:06.949Z,2.58
2023-02-28T08:08:34.955Z,3.05
2023-02-28T08:11:03.871Z,2.25
2023-02-28T08:13:31.720Z,3.80
2023-02-28T08:15:59.946Z,3.10
2023-02-28T08:18:27.714Z,4.82
2023-02-28T08:20:55.643Z,5.88
2023-02-28T08:23:23.442Z,7.30
2023-02-28T08:25:57.765Z,4.63
2023-02-28T08:28:27.461Z,6.50
2023-02-28T08:30:56.017Z,5.13
2023-02-28T08:33:24.572Z,7.70
2023-02-28T08:35:56.703Z,7.22
2023-02-28T08:38:25.065Z,7.47
2023-02-28T08:40:59.878Z,7.65
2023-02-28T08:43:27.999Z,8.25
2023-02-28T08:45:58.250Z,9.20
2023-02-28T08:48:27.859Z,8.95
2023-02-28T08:51:07.088Z,9.25
2023-02-28T08:53:39.149Z,6.18
2023-02-28T08:56:15.889Z,6.88
2023-02-28T08:58:44.106Z,7.45
2023-02-28T09:01:14.075Z,7.30
2023-02-28T09:03:45.042Z,7.93
2023-02-28T09:06:13.178Z,9.02
2023-02-28T09:08:41.420Z,6.45
2023-02-28T09:11:10.004Z,7.90
2023-02-28T09:13:37.963Z,7.60
2023-02-28T09:16:09.228Z,9.80
2023-02-28T09:18:40.510Z,9.10
2023-02-28T09:21:10.256Z,8.95
2023-02-28T09:23:41.160Z,10.75
2023-02-28T09:26:09.500Z,10.23
2023-02-28T09:28:37.524Z,8.50
2023-02-28T09:31:06.198Z,7.20
2023-02-28T09:33:35.616Z,7.10
2023-02-28T09:36:05.521Z,6.82
2023-02-28T09:38:33.735Z,8.60
2023-02-28T09:41:11.697Z,8.48
2023-02-28T09:43:42.266Z,10.40
2023-02-28T09:46:20.827Z,11.60
2023-02-28T09:48:49.923Z,11.00
2023-02-28T09:51:25.365Z,13.95
2023-02-28T09:54:00.063Z,11.00
2023-02-28T09:56:38.103Z,9.05
2023-02-28T09:59:15.223Z,12.85
2023-02-28T10:01:56.255Z,13.43
2023-02-28T10:04:56.571Z,11.43
2023-02-28T10:07:36.956Z,9.50
2023-02-28T10:10:10.165Z,10.93
2023-02-28T10:12:38.303Z,9.68
2023-02-28T10:15:06.387Z,9.82
2023-02-28T10:20:33.055Z,10.00
2023-02-28T10:23:08.956Z,11.63
2023-02-28T10:25:38.036Z,12.80
2023-02-28T10:28:13.684Z,14.82
2023-02-28T10:30:47.218Z,13.48
2023-02-28T10:33:27.438Z,11.40
2023-02-28T10:35:55.259Z,10.35
2023-02-28T10:38:29.340Z,9.80
2023-02-28T10:41:16.330Z,7.45
2023-02-28T10:43:46.343Z,7.28
2023-02-28T10:46:27.313Z,7.78
2023-02-28T10:49:13.181Z,9.88
2023-02-28T10:51:42.235Z,9.38
2023-02-28T10:54:36.843Z,9.52
2023-02-28T10:57:17.691Z,11.13
2023-02-28T10:59:45.920Z,10.82
2023-02-28T11:02:31.119Z,12.25
2023-02-28T11:04:59.329Z,14.95
2023-02-28T11:07:37.310Z,13.38
2023-02-28T11:10:19.071Z,15.98
2023-02-28T11:12:52.828Z,19.15
2023-02-28T11:15:32.767Z,16.42
2023-02-28T11:18:02.864Z,20.10
2023-02-28T11:20:32.939Z,19.10
2023-02-28T11:23:02.377Z,22.55
2023-02-28T11:25:35.338Z,16.45
2023-02-28T11:28:06.987Z,22.92
2023-02-28T11:30:42.302Z,20.92
2023-02-28T11:33:30.605Z,24.98
2023-02-28T11:36:10.506Z,25.83
2023-02-28T11:38:38.788Z,27.67
2023-02-28T11:41:33.617Z,23.83
2023-02-28T11:44:30.407Z,20.33
2023-02-28T11:47:02.537Z,21.30
2023-02-28T11:49:33.451Z,24.40
2023-02-28T11:52:23.519Z,24.20
2023-02-28T11:55:16.364Z,20.45
2023-02-28T11:58:03.141Z,20.20
2023-02-28T12:01:08.160Z,22.63
2023-02-28T12:03:52.540Z,27.08
2023-02-28T12:06:23.503Z,37.15
2023-02-28T12:08:54.772Z,40.13
2023-02-28T12:11:44.522Z,32.05
2023-02-28T12:14:27.219Z,25.10
2023-02-28T12:17:04.633Z,25.35
2023-02-28T12:19:51.331Z,26.23
2023-02-28T12:22:52.485Z,28.13
2023-02-28T12:25:20.099Z,25.25
2023-02-28T12:27:48.882Z,25.92
2023-02-28T12:30:30.458Z,24.20
2023-02-28T12:33:09.431Z,26.85
2023-02-28T12:35:57.274Z,36.47
2023-02-28T12:38:45.769Z,31.70
2023-02-28T12:41:21.835Z,38.22
2023-02-28T12:43:54.771Z,34.22
2023-02-28T12:46:35.852Z,28.55
2023-02-28T12:49:11.248Z,28.80
2023-02-28T12:51:39.034Z,28.48
2023-02-28T12:54:14.065Z,31.52
2023-02-28T12:57:07.641Z,29.80
2023-02-28T12:59:43.348Z,26.83
2023-02-28T13:02:37.331Z,29.40
2023-02-28T13:05:30.351Z,31.40
2023-02-28T13:08:22.982Z,37.57
2023-02-28T13:10:55.747Z,36.75
2023-02-28T13:13:31.161Z,36.95
2023-02-28T13:16:08.165Z,36.53
2023-02-28T13:18:46.616Z,35.55
2023-02-28T13:21:31.496Z,35.28
2023-02-28T13:24:05.112Z,33.72
2023-02-28T13:26:33.255Z,34.67
2023-02-28T13:29:20.344Z,36.22
2023-02-28T13:32:10.149Z,41.33
2023-02-28T13:34:42.758Z,56.10
2023-02-28T13:37:23.003Z,74.40
2023-02-28T13:39:57.989Z,76.40
2023-02-28T13:42:32.231Z,82.72
2023-02-28T13:45:03.179Z,93.88
2023-02-28T13:47:32.302Z,113.25
2023-02-28T13:50:26.240Z,108.35
2023-02-28T13:53:15.664Z,104.97
2023-02-28T13:56:01.718Z,81.72
2023-02-28T13:59:03.675Z,95.72
2023-02-28T14:01:53.629Z,100.50
2023-02-28T14:04:40.179Z,104.03
2023-02-28T14:07:08.617Z,90.80
2023-02-28T14:09:41.159Z,94.78
2023-02-28T14:12:46.202Z,98.17
2023-02-28T14:15:39.540Z,97.93
2023-02-28T14:18:16.223Z,115.18
2023-02-28T14:20:44.314Z,105.18
2023-02-28T14:23:22.581Z,83.70
2023-02-28T14:26:03.924Z,93.03
2023-02-28T14:28:51.223Z,98.13
2023-02-28T14:31:30.067Z,49.75
2023-02-28T14:34:13.584Z,43.90
2023-02-28T14:39:17.991Z,33.67
2023-02-28T14:41:47.176Z,26.05
2023-02-28T14:44:27.309Z,36.70
2023-02-28T14:46:59.511Z,34.70
2023-02-28T14:49:44.216Z,31.25
2023-02-28T14:52:19.060Z,25.88
2023-02-28T14:54:47.528Z,24.08
2023-02-28T14:57:34.579Z,27.30
2023-02-28T15:00:18.007Z,24.88
2023-02-28T15:02:45.998Z,26.45
2023-02-28T15:05:13.874Z,26.67
2023-02-28T15:07:41.807Z,30.08
2023-02-28T15:10:26.724Z,28.17
2023-02-28T15:13:03.777Z,24.52
2023-02-28T15:15:51.588Z,20.33
2023-02-28T15:18:27.138Z,18.92
2023-02-28T15:20:55.379Z,19.85
2023-02-28T15:23:23.301Z,19.98
2023-02-28T15:25:51.735Z,18.33
2023-02-28T15:28:21.058Z,16.83
2023-02-28T15:31:02.995Z,14.55
2023-02-28T15:33:32.887Z,15.98
2023-02-28T15:36:29.280Z,14.23
2023-02-28T15:38:59.600Z,18.73
2023-02-28T15:41:41.526Z,18.27
2023-02-28T15:44:33.253Z,16.67
2023-02-28T15:47:13.741Z,16.60
2023-02-28T15:50:00.634Z,18.25
2023-02-28T15:52:35.424Z,19.70
2023-02-28T15:55:20.075Z,19.80
2023-02-28T15:57:49.739Z,21.70
2023-02-28T16:00:20.676Z,20.92
2023-02-28T16:02:48.900Z,20.88
2023-02-28T16:05:29.488Z,19.00
2023-02-28T16:07:58.728Z,21.95
2023-02-28T16:10:28.226Z,22.20
2023-02-28T16:12:57.410Z,23.92
2023-02-28T16:15:29.969Z,23.67
2023-02-28T16:17:58.274Z,18.15
2023-02-28T16:20:30.817Z,20.00
2023-02-28T16:23:02.656Z,22.05
2023-02-28T16:25:36.678Z,20.27
2023-02-28T16:28:04.676Z,22.33
2023-02-28T16:30:35.412Z,21.65
2023-02-28T16:33:03.726Z,22.23
2023-02-28T16:35:31.728Z,20.35
2023-02-28T16:37:59.880Z,18.88
2023-02-28T16:40:29.844Z,17.40
2023-02-28T16:43:00.488Z,17.08
2023-02-28T16:45:29.512Z,14.95
2023-02-28T16:47:57.442Z,12.75
2023-02-28T16:50:26.993Z,15.07
2023-02-28T16:52:55.764Z,11.20
2023-02-28T16:55:24.542Z,14.60
2023-02-28T16:57:54.778Z,15.55
2023-02-28T17:00:23.201Z,13.07
2023-02-28T17:02:51.376Z,14.40
2023-02-28T17:05:20.145Z,16.77
2023-02-28T17:07:48.233Z,14.85
2023-02-28T17:10:17.779Z,13.77
2023-02-28T17:12:46.120Z,15.43
2023-02-28T17:15:16.190Z,18.25
2023-02-28T17:17:44.256Z,15.07
2023-02-28T17:20:14.552Z,15.32
2023-02-28T17:22:42.720Z,15.27
2023-02-28T17:25:11.611Z,12.27
2023-02-28T17:27:39.810Z,14.70
2023-02-28T17:30:20.617Z,18.25
2023-02-28T17:32:48.807Z,16.55
2023-02-28T17:35:17.353Z,17.35
2023-02-28T17:37:45.098Z,22.45
2023-02-28T17:40:21.342Z,22.90
2023-02-28T17:42:49.933Z,19.52
2023-02-28T17:45:18.148Z,18.02
2023-02-28T17:47:48.555Z,18.70
2023-02-28T17:50:18.978Z,18.63
2023-02-28T17:52:47.753Z,14.35
2023-02-28T17:55:15.919Z,16.13
2023-02-28T17:57:44.391Z,10.80
2023-02-28T18:00:17.313Z,14.43
2023-02-28T18:02:46.021Z,12.13
2023-02-28T18:05:13.768Z,10.75
2023-02-28T18:07:42.103Z,8.77
2023-02-28T18:10:20.677Z,10.48
2023-02-28T18:12:49.686Z,10.68
2023-02-28T18:15:18.876Z,10.00
2023-02-28T18:17:46.792Z,10.30
2023-02-28T18:20:14.742Z,9.05
2023-02-28T18:22:42.983Z,10.05
2023-02-28T18:25:15.072Z,9.13
2023-02-28T18:27:54.563Z,8.50
2023-02-28T18:30:23.209Z,8.73
2023-02-28T18:32:51.047Z,8.40
2023-02-28T18:35:35.287Z,7.68
2023-02-28T18:38:16.803Z,8.68
2023-02-28T18:40:45.907Z,7.93
2023-02-28T18:43:14.064Z,5.57
2023-02-28T18:45:42.404Z,6.78
2023-02-28T18:48:10.864Z,7.13
2023-02-28T18:50:39.252Z,7.10
2023-02-28T18:53:07.422Z,5.95
2023-02-28T18:55:35.649Z,7.25
2023-02-28T18:58:03.717Z,6.80
2023-02-28T19:00:32.257Z,8.00
2023-02-28T19:03:00.457Z,6.43
2023-02-28T19:05:33.569Z,5.82
2023-02-28T19:08:02.863Z,6.93
2023-02-28T19:10:30.518Z,7.38
2023-02-28T19:12:58.343Z,7.88
2023-02-28T19:15:26.586Z,8.38
2023-02-28T19:17:54.404Z,8.90
2023-02-28T19:20:22.207Z,9.90
2023-02-28T19:22:50.099Z,9.50
2023-02-28T19:25:19.264Z,8.10
2023-02-28T19:27:47.346Z,8.70
2023-02-28T19:30:15.717Z,10.40
2023-02-28T19:32:43.607Z,6.90
2023-02-28T19:35:11.375Z,7.50
2023-02-28T19:37:40.349Z,6.80
2023-02-28T19:40:09.598Z,7.85
2023-02-28T19:42:37.865Z,7.00
2023-02-28T19:45:07.350Z,7.03
2023-02-28T19:47:35.558Z,6.20
2023-02-28T19:50:03.422Z,6.75
2023-02-28T19:52:31.555Z,6.88
2023-02-28T19:54:59.305Z,8.65
2023-02-28T19:57:27.805Z,5.55
2023-02-28T19:59:55.722Z,5.05
2023-02-28T20:02:23.762Z,5.75
2023-02-28T20:04:52.304Z,6.20
2023-02-28T20:07:20.691Z,6.25
2023-02-28T20:09:49.010Z,6.95
2023-02-28T20:12:25.518Z,7.05
2023-02-28T20:14:56.247Z,7.15
2023-02-28T20:17:24.654Z,7.63
2023-02-28T20:19:52.471Z,7.47
2023-02-28T20:22:20.138Z,6.53
2023-02-28T20:24:48.655Z,7.28
2023-02-28T20:27:17.780Z,7.28
2023-02-28T20:29:45.803Z,6.72
2023-02-28T20:32:14.317Z,6.93
2023-02-28T20:34:42.801Z,7.93
2023-02-28T20:37:11.146Z,6.95
2023-02-28T20:39:39.193Z,7.03
2023-02-28T20:42:07.694Z,7.57
2023-02-28T20:44:35.596Z,7.00
2023-02-28T20:47:04.546Z,7.38
2023-02-28T20:49:32.163Z,9.15
2023-02-28T20:52:00.429Z,11.30
2023-02-28T20:54:30.889Z,12.02
2023-02-28T20:56:59.138Z,13.68
2023-02-28T20:59:27.291Z,12.18
2023-02-28T21:01:56.681Z,10.65
2023-02-28T21:04:24.815Z,12.32
2023-02-28T21:06:52.921Z,14.68
2023-02-28T21:09:20.782Z,12.48
2023-02-28T21:11:49.031Z,14.23
2023-02-28T21:14:18.319Z,7.10
2023-02-28T21:16:46.471Z,12.55
2023-02-28T21:19:14.662Z,12.88
2023-02-28T21:21:47.152Z,13.73
2023-02-28T21:24:17.363Z,14.27
2023-02-28T21:26:46.271Z,13.88
2023-02-28T21:29:14.817Z,11.95
2023-02-28T21:31:43.096Z,12.18
2023-02-28T21:34:12.008Z,10.40
2023-02-28T21:36:42.397Z,9.10
2023-02-28T21:39:14.321Z,7.72
2023-02-28T21:41:42.547Z,7.30
2023-02-28T21:44:19.046Z,9.50
2023-02-28T21:46:51.125Z,8.88
2023-02-28T21:49:19.268Z,10.40
2023-02-28T21:51:47.521Z,12.90
2023-02-28T21:54:15.368Z,12.80
2023-02-28T21:56:43.932Z,13.85
2023-02-28T21:59:11.697Z,12.60
2023-02-28T22:01:41.639Z,15.05
2023-02-28T22:04:11.129Z,15.27
2023-02-28T22:06:40.681Z,15.70
2023-02-28T22:09:09.642Z,18.67
2023-02-28T22:11:37.727Z,20.63
2023-02-28T22:14:07.205Z,24.75
2023-02-28T22:16:50.163Z,20.17
2023-02-28T22:19:20.917Z,11.68
2023-02-28T22:21:48.966Z,16.40
2023-02-28T22:24:20.630Z,18.77
2023-02-28T22:26:50.296Z,14.95
2023-02-28T22:29:18.527Z,13.70
2023-02-28T22:31:46.474Z,14.65
2023-02-28T22:34:14.206Z,12.48
2023-02-28T22:36:42.793Z,12.82
2023-02-28T22:39:10.736Z,12.88
2023-02-28T22:41:38.993Z,11.25
2023-02-28T22:44:07.688Z,10.88
2023-02-28T22:46:36.359Z,11.38
2023-02-28T22:49:04.808Z,14.60
2023-02-28T22:51:32.538Z,11.00
2023-02-28T22:54:00.693Z,9.30
2023-02-28T22:56:30.021Z,5.43
2023-02-28T22:58:59.647Z,6.97
2023-02-28T23:01:28.893Z,5.47
2023-02-28T23:03:57.246Z,5.90
2023-02-28T23:06:38.569Z,7.43
2023-02-28T23:09:07.441Z,5.78
2023-02-28T23:11:40.511Z,6.60
2023-02-28T23:14:08.769Z,6.35
2023-02-28T23:16:36.563Z,6.03
2023-02-28T23:19:07.482Z,6.28
2023-02-28T23:21:36.414Z,4.90
2023-02-28T23:24:05.425Z,6.85
2023-02-28T23:26:33.958Z,6.22
2023-02-28T23:29:02.018Z,6.80
2023-02-28T23:31:30.018Z,7.25
2023-02-28T23:33:57.837Z,8.65
2023-02-28T23:36:25.689Z,7.28
2023-02-28T23:38:54.918Z,10.50
2023-02-28T23:41:23.473Z,10.80
2023-02-28T23:43:52.529Z,14.32
2023-02-28T23:46:21.136Z,16.05
2023-02-28T23:48:49.262Z,16.50
2023-02-28T23:51:19.702Z,18.83
2023-02-28T23:53:50.757Z,18.85
2023-02-28T23:56:23.849Z,21.10
2023-02-28T23:58:52.094Z,20.55
